Latest Coastal Weather Observations for Melbourne (Olympic Park)

IDV60701

Issued at 1:11 am EDT Monday 26 January 2015 (issued every 10 minutes, with the page automatically refreshed every 10 minutes)

About coastal observations | Map of coastal stations | Coastal observations for VIC | Marine services | Other Formats
Station Details ID: 086338 Name: MELBOURNE (OLYMPIC PARK) Lat: -37.83 Lon: 144.98 Height: 7.53 m
Data from the previous 72 hours. | See also: Recent months at Melbourne (Olympic Park)
Date/Time
EDT
Temp

°C
Wind Pressure Rain
since 9am
mm
Weather Cloud Vis
km
Sea
Height
m
Swell
Dir
 
Speed
knots
Gust
knots
hPa Trend Height
m
Period
s
Dir
26/01:00am 14.5 W 4 10 1013.7 - 0.0 - - - - - - -
26/12:30am 14.6 W 4 8 1013.6 - 0.0 - - - - - - -
26/12:00am 14.7 WNW 5 9 1013.6 - 0.0 - - - - - - -
 
Date/Time
EDT
Temp

°C
Wind Pressure Rain
since 9am
mm
Weather Cloud Vis
km
Sea
Height
m
Swell
Dir
 
Speed
knots
Gust
knots
hPa Trend Height
m
Period
s
Dir
25/11:30pm 14.9 W 5 9 1013.6 - 0.0 - - - - - - -
25/11:00pm 15.2 W 6 10 1013.5 - 0.0 - - - - - - -
25/10:30pm 15.8 W 6 12 1013.4 - 0.0 - - - - - - -
25/10:00pm 16.5 W 5 10 1013.1 - 0.0 - - - - - - -
25/09:30pm 16.8 W 5 11 1012.8 - 0.0 - - - - - - -
25/09:00pm 17.1 SW 5 13 1012.4 - 0.0 - - - - - - -
25/08:30pm 17.0 S 7 13 1012.0 - 0.0 - - - - - - -
25/08:00pm 17.3 SSE 8 15 1011.7 - 0.0 - - - - - - -
25/07:30pm 17.4 S 6 10 1011.4 - 0.0 - - - - - - -
25/07:00pm 17.5 SSW 9 17 1011.0 - 0.0 - - - - - - -
25/06:30pm 18.7 SSW 7 15 1010.4 - 0.0 - - - - - - -
25/06:00pm 18.7 SW 9 19 1010.3 - 0.0 - - - - - - -
25/05:30pm 19.2 SSW 10 20 1010.2 - 0.0 - - - - - - -
25/05:00pm 19.7 SSW 9 16 1009.5 - 0.0 - - - - - - -
25/04:30pm 19.5 S 11 22 1009.2 - 0.0 - - - - - - -
25/04:00pm 20.8 SSW 9 20 1009.0 - 0.0 - - - - - - -
25/03:30pm 21.3 SW 7 15 1008.8 - 0.0 - - - - - - -
25/03:00pm 20.9 WSW 8 18 1008.8 - 0.0 - - - - - - -
25/02:30pm 19.5 SW 8 17 1008.9 - 0.0 - - - - - - -
25/02:00pm 20.4 SW 8 15 1008.5 - 0.0 - - - - - - -
25/01:30pm 21.0 W 9 17 1008.5 - 0.0 - - - - - - -
25/01:00pm 20.7 SSW 7 15 1008.5 - 0.0 - - - - - - -
25/12:30pm 19.3 W 9 18 1008.4 - 0.0 - - - - - - -
25/12:00pm 18.5 SW 8 16 1008.6 - 0.0 - - - - - - -
25/11:30am 18.2 WSW 9 18 1008.6 - 0.0 - - - - - - -
25/11:00am 18.4 WSW 9 17 1008.3 - 0.0 - - - - - - -
25/10:30am 17.5 W 7 15 1008.2 - 0.0 - - - - - - -
25/10:00am 18.0 WSW 7 13 1008.1 - 0.0 - - - - - - -
25/09:30am 17.1 W 6 13 1007.7 - 0.0 - - - - - - -
25/09:00am 16.1 WSW 8 15 1007.5 - 0.0 - - - - - - -
25/08:30am 16.3 W 5 8 1007.3 - 0.0 - - - - - - -
25/08:00am 15.7 WSW 6 11 1007.0 - 0.0 - - - - - - -
25/07:30am 15.5 WSW 7 12 1006.4 - 0.0 - - - - - - -
25/07:00am 15.4 W 7 14 1006.3 - 0.0 - - - - - - -
25/06:30am 15.3 W 6 10 1005.6 - 0.0 - - - - - - -
25/06:00am 14.9 W 6 12 1004.9 - 0.0 - - - - - - -
25/05:30am 15.8 WSW 10 23 1005.0 - 0.0 - - - - - - -
25/05:00am 17.5 W 4 7 1003.8 - 0.0 - - - - - - -
25/04:30am 17.1 NNW 5 7 1002.9 - 0.0 - - - - - - -
25/04:00am 17.6 NW 5 8 1002.8 - 0.0 - - - - - - -
25/03:30am 17.2 NNW 1 5 1002.6 - 0.0 - - - - - - -
25/03:00am 17.6 NW 5 7 1002.7 - 0.0 - - - - - - -
25/02:30am 17.6 WNW 1 3 1002.6 - 0.0 - - - - - - -
25/02:00am 17.0 CALM 0 3 1003.3 - 0.0 - - - - - - -
25/01:30am 17.0 CALM 0 0 1003.3 - 0.0 - - - - - - -
25/01:00am 17.6 CALM 0 0 1003.5 - 0.0 - - - - - - -
25/12:30am 18.5 S 3 6 1003.5 - 0.0 - - - - - - -
25/12:00am 18.5 S 4 6 1003.5 - 0.0 - - - - - - -
 
Date/Time
EDT
Temp

°C
Wind Pressure Rain
since 9am
mm
Weather Cloud Vis
km
Sea
Height
m
Swell
Dir
 
Speed
knots
Gust
knots
hPa Trend Height
m
Period
s
Dir
24/11:30pm 18.6 CALM 0 3 1003.5 - 0.0 - - - - - - -
24/11:00pm 19.3 SSE 4 6 1003.8 - 0.0 - - - - - - -
24/10:30pm 19.5 S 3 5 1003.9 - 0.0 - - - - - - -
24/10:00pm 19.9 S 4 7 1003.6 - 0.0 - - - - - - -
24/09:30pm 20.2 S 6 11 1003.3 - 0.0 - - - - - - -
24/09:00pm 21.0 S 6 11 1003.0 - 0.0 - - - - - - -
24/08:30pm 22.0 S 7 11 1002.3 - 0.0 - - - - - - -
24/08:00pm 22.7 SSW 6 10 1001.7 - 0.0 - - - - - - -
24/07:30pm 23.8 SW 4 8 1001.4 - 0.0 - - - - - - -
24/07:00pm 22.6 SSW 9 15 1001.4 - 0.0 - - - - - - -
24/06:30pm 23.2 S 6 11 1001.2 - 0.0 - - - - - - -
24/06:00pm 23.5 SSW 10 15 1001.3 - 0.0 - - - - - - -
24/05:30pm 24.8 SSW 8 15 1001.1 - 0.0 - - - - - - -
24/05:00pm 26.0 S 6 11 1000.9 - 0.0 - - - - - - -
24/04:30pm 25.1 S 9 13 1001.2 - 0.0 - - - - - - -
24/04:00pm 24.6 S 8 13 1001.7 - 0.0 - - - - - - -
24/03:30pm 24.6 SSW 8 14 1002.1 - 0.0 - - - - - - -
24/03:00pm 24.3 SSW 7 13 1002.3 - 0.0 - - - - - - -
24/02:30pm 24.4 SSW 6 11 1002.6 - 0.0 - - - - - - -
24/02:00pm 23.4 SSW 8 14 1003.2 - 0.0 - - - - - - -
24/01:30pm 23.2 SSW 8 12 1003.5 - 0.0 - - - - - - -
24/01:00pm 23.1 SSW 8 11 1003.7 - 0.0 - - - - - - -
24/12:30pm 24.1 S 4 7 1003.9 - 0.0 - - - - - - -
24/12:00pm 24.0 SSW 3 6 1004.3 - 0.0 - - - - - - -
24/11:30am 22.5 S 5 8 1004.9 - 0.0 - - - - - - -
24/11:00am 22.1 SSE 3 6 1005.2 - 0.0 - - - - - - -
24/10:30am 21.1 ENE 2 5 1005.5 - 0.0 - - - - - - -
24/10:00am 19.9 E 1 4 1006.0 - 0.0 - - - - - - -
24/09:30am 19.0 N 3 5 1006.2 - 0.0 - - - - - - -
24/09:00am 18.5 NNE 3 8 1006.2 - 0.0 - - - - - - -
24/08:30am 17.8 N 3 6 1006.1 - 0.0 - - - - - - -
24/08:00am 17.6 SW 1 3 1005.8 - 0.0 - - - - - - -
24/07:30am 17.2 W 1 3 1005.7 - 0.0 - - - - - - -
24/07:00am 16.8 NW 2 4 1005.6 - 0.0 - - - - - - -
24/06:30am 17.0 CALM 0 4 1005.6 - 0.0 - - - - - - -
24/06:00am 16.9 CALM 0 0 1005.5 - 0.0 - - - - - - -
24/05:30am 16.7 CALM 0 0 1005.8 - 0.0 - - - - - - -
24/05:00am 16.0 CALM 0 0 1005.6 - 0.0 - - - - - - -
24/04:30am 16.4 CALM 0 0 1005.6 - 0.0 - - - - - - -
24/04:00am 16.5 CALM 0 3 1005.9 - 0.0 - - - - - - -
24/03:30am 15.9 CALM 0 3 1006.2 - 0.0 - - - - - - -
24/03:00am 16.0 CALM 0 3 1006.3 - 0.0 - - - - - - -
24/02:30am 16.2 S 3 5 1006.7 - 0.0 - - - - - - -
24/02:00am 16.4 S 4 6 1007.1 - 0.0 - - - - - - -
24/01:30am 16.4 S 2 5 1007.6 - 0.0 - - - - - - -
24/01:00am 16.6 S 3 6 1007.8 - 0.0 - - - - - - -
24/12:30am 16.8 S 2 5 1008.0 - 0.0 - - - - - - -
24/12:00am 17.1 SSE 5 7 1008.2 - 0.0 - - - - - - -
 
Date/Time
EDT
Temp

°C
Wind Pressure Rain
since 9am
mm
Weather Cloud Vis
km
Sea
Height
m
Swell
Dir
 
Speed
knots
Gust
knots
hPa Trend Height
m
Period
s
Dir
23/11:30pm 17.3 SSE 5 10 1008.4 - 0.0 - - - - - - -
23/11:00pm 17.5 SSE 5 10 1008.7 - 0.0 - - - - - - -
23/10:30pm 17.9 SE 7 13 1008.8 - 0.0 - - - - - - -
23/10:00pm 18.2 SSE 6 11 1008.9 - 0.0 - - - - - - -
23/09:30pm 18.5 SSE 8 13 1008.9 - 0.0 - - - - - - -
23/09:00pm 19.0 SSE 8 15 1008.8 - 0.0 - - - - - - -
23/08:30pm 19.6 SSE 9 16 1008.7 - 0.0 - - - - - - -
23/08:00pm 19.9 SSE 9 17 1008.3 - 0.0 - - - - - - -
23/07:30pm 20.0 S 9 16 1007.8 - 0.0 - - - - - - -
23/07:00pm 20.6 S 9 16 1007.5 - 0.0 - - - - - - -
23/06:30pm 21.0 SSW 10 18 1007.3 - 0.0 - - - - - - -
23/06:00pm 21.1 S 8 16 1007.1 - 0.0 - - - - - - -
23/05:30pm 21.0 S 10 17 1006.8 - 0.0 - - - - - - -
23/05:00pm 21.4 SSW 10 19 1006.6 - 0.0 - - - - - - -
23/04:30pm 21.7 SSW 9 18 1006.5 - 0.0 - - - - - - -
23/04:00pm 21.4 S 11 20 1006.5 - 0.0 - - - - - - -
23/03:30pm 21.6 S 11 18 1006.4 - 0.0 - - - - - - -
23/03:00pm 22.4 SSW 9 18 1006.4 - 0.0 - - - - - - -
23/02:30pm 23.3 S 7 15 1005.9 - 0.0 - - - - - - -
23/02:00pm 23.8 S 9 15 1006.3 - 0.0 - - - - - - -
23/01:30pm 24.7 S 7 12 1006.6 - 0.0 - - - - - - -
23/01:00pm 23.8 S 7 12 1006.6 - 0.0 - - - - - - -
23/12:30pm 23.2 S 7 12 1006.6 - 0.0 - - - - - - -
23/12:00pm 22.2 S 9 18 1006.7 - 0.0 - - - - - - -
23/11:30am 22.4 S 9 15 1006.5 - 0.0 - - - - - - -
23/11:00am 23.4 S 8 15 1006.4 - 0.0 - - - - - - -
23/10:30am 23.8 SW 7 13 1006.1 - 0.0 - - - - - - -
23/10:00am 22.7 SSW 10 17 1006.0 - 0.0 - - - - - - -
23/09:30am 22.5 S 8 15 1005.7 - 0.0 - - - - - - -
23/09:00am 23.7 SSW 4 9 1005.7 - 0.0 - - - - - - -
23/08:30am 23.2 SSW 5 8 1005.3 - 0.0 - - - - - - -
23/08:00am 22.6 S 3 6 1005.0 - 0.0 - - - - - - -
23/07:30am 22.7 SW 5 8 1004.5 - 0.0 - - - - - - -
23/07:00am 22.4 SW 1 6 1004.3 - 0.0 - - - - - - -
23/06:30am 22.7 WSW 5 9 1003.8 - 0.0 - - - - - - -
23/06:00am 23.9 WSW 6 13 1003.4 - 0.0 - - - - - - -
23/05:30am 21.2 CALM 0 0 1002.6 - 0.0 - - - - - - -
23/05:00am 21.6 NNE 1 4 1002.5 - 0.0 - - - - - - -
23/04:30am 21.8 NE 5 7 1002.6 - 0.0 - - - - - - -
23/04:00am 20.9 NW 1 6 1003.0 - 0.0 - - - - - - -
23/03:30am 20.9 CALM 0 0 1003.1 - 0.0 - - - - - - -
23/03:00am 21.7 NNE 3 5 1003.2 - 0.0 - - - - - - -
23/02:30am 21.7 NNE 3 5 1003.8 - 0.0 - - - - - - -
23/02:00am 21.7 NE 2 5 1004.1 - 0.0 - - - - - - -
23/01:30am 21.2 NW 1 5 1004.9 - 0.0 - - - - - - -

Other Formats:

Comma delimited format used in spreadsheet applications
http://www.bom.gov.au/fwo/IDV60701/IDV60701.95936.axf

JavaScript Object Notation format (JSON) in row-major order
http://www.bom.gov.au/fwo/IDV60701/IDV60701.95936.json